sensor_id;sensor_type;location;lat;lon;timestamp;temperature;humidity
21592;DHT22;10958;50.892;3.992;2023-07-13T00:00:52;17.20;99.90
21592;DHT22;10958;50.892;3.992;2023-07-13T00:03:18;17.20;99.90
21592;DHT22;10958;50.892;3.992;2023-07-13T00:05:44;17.20;99.90
21592;DHT22;10958;50.892;3.992;2023-07-13T00:08:10;17.20;99.90
21592;DHT22;10958;50.892;3.992;2023-07-13T00:10:45;17.00;99.90
21592;DHT22;10958;50.892;3.992;2023-07-13T00:13:16;16.90;99.90
21592;DHT22;10958;50.892;3.992;2023-07-13T00:15:42;16.80;99.90
21592;DHT22;10958;50.892;3.992;2023-07-13T00:18:09;16.90;99.90
21592;DHT22;10958;50.892;3.992;2023-07-13T00:20:40;17.10;99.90
21592;DHT22;10958;50.892;3.992;2023-07-13T00:23:07;17.00;99.90
21592;DHT22;10958;50.892;3.992;2023-07-13T00:25:33;17.00;99.90
21592;DHT22;10958;50.892;3.992;2023-07-13T00:28:00;16.90;99.90
21592;DHT22;10958;50.892;3.992;2023-07-13T00:30:28;17.00;99.90
21592;DHT22;10958;50.892;3.992;2023-07-13T00:32:54;17.00;99.90
21592;DHT22;10958;50.892;3.992;2023-07-13T00:35:23;17.00;99.90
21592;DHT22;10958;50.892;3.992;2023-07-13T00:37:49;16.90;99.90
21592;DHT22;10958;50.892;3.992;2023-07-13T00:40:16;16.90;99.90
21592;DHT22;10958;50.892;3.992;2023-07-13T00:42:42;16.90;99.90
21592;DHT22;10958;50.892;3.992;2023-07-13T00:47:40;16.90;99.90
21592;DHT22;10958;50.892;3.992;2023-07-13T00:50:09;16.90;99.90
21592;DHT22;10958;50.892;3.992;2023-07-13T00:52:38;16.90;99.90
21592;DHT22;10958;50.892;3.992;2023-07-13T00:55:09;17.00;99.90
21592;DHT22;10958;50.892;3.992;2023-07-13T00:57:35;17.10;99.90
21592;DHT22;10958;50.892;3.992;2023-07-13T01:00:04;17.20;99.90
21592;DHT22;10958;50.892;3.992;2023-07-13T01:02:32;17.20;99.90
21592;DHT22;10958;50.892;3.992;2023-07-13T01:04:58;17.00;99.90
21592;DHT22;10958;50.892;3.992;2023-07-13T01:07:27;17.20;99.90
21592;DHT22;10958;50.892;3.992;2023-07-13T01:09:53;17.30;99.90
21592;DHT22;10958;50.892;3.992;2023-07-13T01:12:21;17.10;99.90
21592;DHT22;10958;50.892;3.992;2023-07-13T01:14:46;17.00;99.90
21592;DHT22;10958;50.892;3.992;2023-07-13T01:17:20;16.90;99.90
21592;DHT22;10958;50.892;3.992;2023-07-13T01:19:46;16.90;99.90
21592;DHT22;10958;50.892;3.992;2023-07-13T01:22:17;16.80;99.90
21592;DHT22;10958;50.892;3.992;2023-07-13T01:24:50;16.90;99.90
21592;DHT22;10958;50.892;3.992;2023-07-13T01:27:20;17.00;99.90
21592;DHT22;10958;50.892;3.992;2023-07-13T01:29:47;16.90;99.90
21592;DHT22;10958;50.892;3.992;2023-07-13T01:32:18;16.80;99.90
21592;DHT22;10958;50.892;3.992;2023-07-13T01:34:53;16.70;99.90
21592;DHT22;10958;50.892;3.992;2023-07-13T01:37:20;16.70;99.90
21592;DHT22;10958;50.892;3.992;2023-07-13T01:39:46;16.60;99.90
21592;DHT22;10958;50.892;3.992;2023-07-13T01:42:15;16.40;99.90
21592;DHT22;10958;50.892;3.992;2023-07-13T01:44:41;16.50;99.90
21592;DHT22;10958;50.892;3.992;2023-07-13T01:47:07;16.50;99.90
21592;DHT22;10958;50.892;3.992;2023-07-13T01:49:33;16.50;99.90
21592;DHT22;10958;50.892;3.992;2023-07-13T01:51:59;16.70;99.90
21592;DHT22;10958;50.892;3.992;2023-07-13T01:54:25;16.70;99.90
21592;DHT22;10958;50.892;3.992;2023-07-13T01:56:50;16.80;99.90
21592;DHT22;10958;50.892;3.992;2023-07-13T01:59:16;16.80;99.90
21592;DHT22;10958;50.892;3.992;2023-07-13T02:01:42;16.70;99.90
21592;DHT22;10958;50.892;3.992;2023-07-13T02:04:08;16.80;99.90
21592;DHT22;10958;50.892;3.992;2023-07-13T02:06:34;16.70;99.90
21592;DHT22;10958;50.892;3.992;2023-07-13T02:09:00;16.80;99.90
21592;DHT22;10958;50.892;3.992;2023-07-13T02:11:26;16.70;99.90
21592;DHT22;10958;50.892;3.992;2023-07-13T02:14:01;16.40;99.90
21592;DHT22;10958;50.892;3.992;2023-07-13T02:16:27;16.30;99.90
21592;DHT22;10958;50.892;3.992;2023-07-13T02:18:53;16.30;99.90
21592;DHT22;10958;50.892;3.992;2023-07-13T02:21:23;16.30;99.90
21592;DHT22;10958;50.892;3.992;2023-07-13T02:23:52;16.30;99.90
21592;DHT22;10958;50.892;3.992;2023-07-13T02:26:18;16.30;99.90
21592;DHT22;10958;50.892;3.992;2023-07-13T02:28:44;16.40;99.90
21592;DHT22;10958;50.892;3.992;2023-07-13T02:31:13;16.30;99.90
21592;DHT22;10958;50.892;3.992;2023-07-13T02:33:39;16.30;99.90
21592;DHT22;10958;50.892;3.992;2023-07-13T02:36:10;16.20;99.90
21592;DHT22;10958;50.892;3.992;2023-07-13T02:38:36;16.00;99.90
21592;DHT22;10958;50.892;3.992;2023-07-13T02:41:07;16.00;99.90
21592;DHT22;10958;50.892;3.992;2023-07-13T02:43:34;16.20;99.90
21592;DHT22;10958;50.892;3.992;2023-07-13T02:46:01;16.40;99.90
21592;DHT22;10958;50.892;3.992;2023-07-13T02:48:33;16.30;99.90
21592;DHT22;10958;50.892;3.992;2023-07-13T02:50:58;16.00;99.90
21592;DHT22;10958;50.892;3.992;2023-07-13T02:53:25;15.80;99.90
21592;DHT22;10958;50.892;3.992;2023-07-13T02:55:53;15.90;99.90
21592;DHT22;10958;50.892;3.992;2023-07-13T02:58:19;16.10;99.90
21592;DHT22;10958;50.892;3.992;2023-07-13T03:00:46;16.00;99.90
21592;DHT22;10958;50.892;3.992;2023-07-13T03:03:14;15.70;99.90
21592;DHT22;10958;50.892;3.992;2023-07-13T03:05:41;15.70;99.90
21592;DHT22;10958;50.892;3.992;2023-07-13T03:08:11;15.80;99.90
21592;DHT22;10958;50.892;3.992;2023-07-13T03:10:37;15.70;99.90
21592;DHT22;10958;50.892;3.992;2023-07-13T03:13:05;15.70;99.90
21592;DHT22;10958;50.892;3.992;2023-07-13T03:15:31;15.60;99.90
21592;DHT22;10958;50.892;3.992;2023-07-13T03:17:57;15.70;99.90
21592;DHT22;10958;50.892;3.992;2023-07-13T03:20:23;15.60;99.90
21592;DHT22;10958;50.892;3.992;2023-07-13T03:22:48;15.70;99.90
21592;DHT22;10958;50.892;3.992;2023-07-13T03:25:14;15.60;99.90
21592;DHT22;10958;50.892;3.992;2023-07-13T03:27:40;15.40;99.90
21592;DHT22;10958;50.892;3.992;2023-07-13T03:30:06;15.40;99.90
21592;DHT22;10958;50.892;3.992;2023-07-13T03:32:32;15.40;99.90
21592;DHT22;10958;50.892;3.992;2023-07-13T03:34:58;15.40;99.90
21592;DHT22;10958;50.892;3.992;2023-07-13T03:37:24;15.40;99.90
21592;DHT22;10958;50.892;3.992;2023-07-13T03:39:50;15.50;99.90
21592;DHT22;10958;50.892;3.992;2023-07-13T03:42:16;15.50;99.90
21592;DHT22;10958;50.892;3.992;2023-07-13T03:44:42;15.50;99.90
21592;DHT22;10958;50.892;3.992;2023-07-13T03:47:11;15.50;99.90
21592;DHT22;10958;50.892;3.992;2023-07-13T03:49:37;15.50;99.90
21592;DHT22;10958;50.892;3.992;2023-07-13T03:52:03;15.50;99.90
21592;DHT22;10958;50.892;3.992;2023-07-13T03:54:29;15.60;99.90
21592;DHT22;10958;50.892;3.992;2023-07-13T03:56:55;15.50;99.90
21592;DHT22;10958;50.892;3.992;2023-07-13T03:59:25;15.50;99.90
21592;DHT22;10958;50.892;3.992;2023-07-13T04:01:51;15.60;99.90
21592;DHT22;10958;50.892;3.992;2023-07-13T04:04:17;15.60;99.90
21592;DHT22;10958;50.892;3.992;2023-07-13T04:06:42;15.60;99.90
21592;DHT22;10958;50.892;3.992;2023-07-13T04:09:08;15.70;99.90
21592;DHT22;10958;50.892;3.992;2023-07-13T04:11:36;15.60;99.90
21592;DHT22;10958;50.892;3.992;2023-07-13T04:14:05;15.80;99.90
21592;DHT22;10958;50.892;3.992;2023-07-13T04:16:31;15.90;99.90
21592;DHT22;10958;50.892;3.992;2023-07-13T04:18:57;15.90;99.90
21592;DHT22;10958;50.892;3.992;2023-07-13T04:21:26;15.90;99.90
21592;DHT22;10958;50.892;3.992;2023-07-13T04:23:53;15.80;99.90
21592;DHT22;10958;50.892;3.992;2023-07-13T04:26:19;15.70;99.90
21592;DHT22;10958;50.892;3.992;2023-07-13T04:28:47;15.70;99.90
21592;DHT22;10958;50.892;3.992;2023-07-13T04:31:14;15.70;99.90
21592;DHT22;10958;50.892;3.992;2023-07-13T04:33:39;15.80;99.90
21592;DHT22;10958;50.892;3.992;2023-07-13T04:36:06;15.80;99.90
21592;DHT22;10958;50.892;3.992;2023-07-13T04:38:33;15.90;99.90
21592;DHT22;10958;50.892;3.992;2023-07-13T04:41:04;16.00;99.90
21592;DHT22;10958;50.892;3.992;2023-07-13T04:43:32;16.00;99.90
21592;DHT22;10958;50.892;3.992;2023-07-13T04:46:03;16.20;99.90
21592;DHT22;10958;50.892;3.992;2023-07-13T04:48:30;16.10;99.90
21592;DHT22;10958;50.892;3.992;2023-07-13T04:50:57;16.00;99.90
21592;DHT22;10958;50.892;3.992;2023-07-13T04:53:25;16.20;99.90
21592;DHT22;10958;50.892;3.992;2023-07-13T04:55:52;16.30;99.90
21592;DHT22;10958;50.892;3.992;2023-07-13T04:58:18;16.00;99.90
21592;DHT22;10958;50.892;3.992;2023-07-13T05:00:44;16.10;99.90
21592;DHT22;10958;50.892;3.992;2023-07-13T05:03:10;16.00;99.90
21592;DHT22;10958;50.892;3.992;2023-07-13T05:05:38;16.20;99.90
21592;DHT22;10958;50.892;3.992;2023-07-13T05:08:04;16.20;99.90
21592;DHT22;10958;50.892;3.992;2023-07-13T05:10:30;16.20;99.90
21592;DHT22;10958;50.892;3.992;2023-07-13T05:12:57;16.20;99.90
21592;DHT22;10958;50.892;3.992;2023-07-13T05:15:23;16.10;99.90
21592;DHT22;10958;50.892;3.992;2023-07-13T05:17:49;16.10;99.90
21592;DHT22;10958;50.892;3.992;2023-07-13T05:20:21;16.10;99.90
21592;DHT22;10958;50.892;3.992;2023-07-13T05:22:49;16.20;99.90
21592;DHT22;10958;50.892;3.992;2023-07-13T05:25:18;16.10;99.90
21592;DHT22;10958;50.892;3.992;2023-07-13T05:27:46;16.40;99.90
21592;DHT22;10958;50.892;3.992;2023-07-13T05:30:12;16.50;99.90
21592;DHT22;10958;50.892;3.992;2023-07-13T05:32:39;16.70;99.90
21592;DHT22;10958;50.892;3.992;2023-07-13T05:35:06;16.80;99.90
21592;DHT22;10958;50.892;3.992;2023-07-13T05:37:31;16.80;99.90
21592;DHT22;10958;50.892;3.992;2023-07-13T05:39:58;16.90;99.90
21592;DHT22;10958;50.892;3.992;2023-07-13T05:42:28;16.80;99.90
21592;DHT22;10958;50.892;3.992;2023-07-13T05:44:54;16.70;99.90
21592;DHT22;10958;50.892;3.992;2023-07-13T05:47:23;16.80;99.90
21592;DHT22;10958;50.892;3.992;2023-07-13T05:49:51;17.00;99.90
21592;DHT22;10958;50.892;3.992;2023-07-13T05:52:17;17.30;99.90
21592;DHT22;10958;50.892;3.992;2023-07-13T05:54:44;17.40;99.90
21592;DHT22;10958;50.892;3.992;2023-07-13T05:57:12;17.60;99.90
21592;DHT22;10958;50.892;3.992;2023-07-13T05:59:37;17.60;99.90
21592;DHT22;10958;50.892;3.992;2023-07-13T06:02:07;17.50;99.90
21592;DHT22;10958;50.892;3.992;2023-07-13T06:04:36;17.50;99.90
21592;DHT22;10958;50.892;3.992;2023-07-13T06:07:07;17.70;99.90
21592;DHT22;10958;50.892;3.992;2023-07-13T06:09:32;17.80;99.90
21592;DHT22;10958;50.892;3.992;2023-07-13T06:11:58;17.80;99.90
21592;DHT22;10958;50.892;3.992;2023-07-13T06:14:26;17.80;99.90
21592;DHT22;10958;50.892;3.992;2023-07-13T06:16:57;17.70;99.90
21592;DHT22;10958;50.892;3.992;2023-07-13T06:19:23;17.70;99.90
21592;DHT22;10958;50.892;3.992;2023-07-13T06:21:49;17.90;99.90
21592;DHT22;10958;50.892;3.992;2023-07-13T06:24:17;18.20;99.90
21592;DHT22;10958;50.892;3.992;2023-07-13T06:26:43;18.30;99.90
21592;DHT22;10958;50.892;3.992;2023-07-13T06:29:08;18.40;99.90
21592;DHT22;10958;50.892;3.992;2023-07-13T06:31:34;18.60;99.90
21592;DHT22;10958;50.892;3.992;2023-07-13T06:34:00;18.80;99.90
21592;DHT22;10958;50.892;3.992;2023-07-13T06:36:26;18.90;99.90
21592;DHT22;10958;50.892;3.992;2023-07-13T06:38:54;19.00;99.90
21592;DHT22;10958;50.892;3.992;2023-07-13T06:41:20;19.00;99.90
21592;DHT22;10958;50.892;3.992;2023-07-13T06:43:47;19.10;99.90
21592;DHT22;10958;50.892;3.992;2023-07-13T06:46:13;19.20;99.90
21592;DHT22;10958;50.892;3.992;2023-07-13T06:48:39;19.30;99.90
21592;DHT22;10958;50.892;3.992;2023-07-13T06:51:05;19.40;99.90
21592;DHT22;10958;50.892;3.992;2023-07-13T06:53:32;19.40;99.90
21592;DHT22;10958;50.892;3.992;2023-07-13T06:55:58;19.40;99.90
21592;DHT22;10958;50.892;3.992;2023-07-13T06:58:24;19.70;99.90
21592;DHT22;10958;50.892;3.992;2023-07-13T07:00:53;19.80;99.90
21592;DHT22;10958;50.892;3.992;2023-07-13T07:03:18;20.00;99.90
21592;DHT22;10958;50.892;3.992;2023-07-13T07:05:44;20.10;99.90
21592;DHT22;10958;50.892;3.992;2023-07-13T07:08:10;20.10;99.90
21592;DHT22;10958;50.892;3.992;2023-07-13T07:10:38;20.50;99.90
21592;DHT22;10958;50.892;3.992;2023-07-13T07:13:06;20.60;99.90
21592;DHT22;10958;50.892;3.992;2023-07-13T07:15:35;20.70;99.90
21592;DHT22;10958;50.892;3.992;2023-07-13T07:18:01;21.10;99.90
21592;DHT22;10958;50.892;3.992;2023-07-13T07:20:26;21.40;99.90
21592;DHT22;10958;50.892;3.992;2023-07-13T07:22:53;21.60;99.90
21592;DHT22;10958;50.892;3.992;2023-07-13T07:25:19;21.70;99.90
21592;DHT22;10958;50.892;3.992;2023-07-13T07:27:45;21.90;99.90
21592;DHT22;10958;50.892;3.992;2023-07-13T07:30:15;21.80;99.90
21592;DHT22;10958;50.892;3.992;2023-07-13T07:32:40;22.40;99.90
21592;DHT22;10958;50.892;3.992;2023-07-13T07:35:07;23.20;99.90
21592;DHT22;10958;50.892;3.992;2023-07-13T07:37:33;23.40;99.90
21592;DHT22;10958;50.892;3.992;2023-07-13T07:39:59;23.20;99.90
21592;DHT22;10958;50.892;3.992;2023-07-13T07:42:30;23.40;99.90
21592;DHT22;10958;50.892;3.992;2023-07-13T07:44:57;23.90;99.90
21592;DHT22;10958;50.892;3.992;2023-07-13T07:47:26;23.30;99.90
21592;DHT22;10958;50.892;3.992;2023-07-13T07:49:51;22.70;99.90
21592;DHT22;10958;50.892;3.992;2023-07-13T07:52:18;22.90;99.90
21592;DHT22;10958;50.892;3.992;2023-07-13T07:54:44;23.80;99.90
21592;DHT22;10958;50.892;3.992;2023-07-13T07:57:09;25.10;99.90
21592;DHT22;10958;50.892;3.992;2023-07-13T07:59:36;24.60;99.90
21592;DHT22;10958;50.892;3.992;2023-07-13T08:02:03;24.20;99.90
21592;DHT22;10958;50.892;3.992;2023-07-13T08:04:31;24.10;99.90
21592;DHT22;10958;50.892;3.992;2023-07-13T08:06:59;23.50;99.90
21592;DHT22;10958;50.892;3.992;2023-07-13T08:09:28;23.50;99.90
21592;DHT22;10958;50.892;3.992;2023-07-13T08:11:54;23.30;99.90
21592;DHT22;10958;50.892;3.992;2023-07-13T08:14:20;23.60;99.90
21592;DHT22;10958;50.892;3.992;2023-07-13T08:16:46;23.70;99.90
21592;DHT22;10958;50.892;3.992;2023-07-13T08:19:12;23.80;99.90
21592;DHT22;10958;50.892;3.992;2023-07-13T08:21:42;24.20;99.90
21592;DHT22;10958;50.892;3.992;2023-07-13T08:24:13;24.80;99.90
21592;DHT22;10958;50.892;3.992;2023-07-13T08:26:39;24.10;99.90
21592;DHT22;10958;50.892;3.992;2023-07-13T08:29:11;24.20;99.90
21592;DHT22;10958;50.892;3.992;2023-07-13T08:31:36;24.50;99.90
21592;DHT22;10958;50.892;3.992;2023-07-13T08:34:02;24.50;99.90
21592;DHT22;10958;50.892;3.992;2023-07-13T08:36:31;24.70;99.90
21592;DHT22;10958;50.892;3.992;2023-07-13T08:38:58;25.00;99.90
21592;DHT22;10958;50.892;3.992;2023-07-13T08:41:24;25.70;99.90
21592;DHT22;10958;50.892;3.992;2023-07-13T08:43:53;25.40;99.90
21592;DHT22;10958;50.892;3.992;2023-07-13T08:46:38;26.00;99.90
21592;DHT22;10958;50.892;3.992;2023-07-13T08:49:15;26.30;99.90
21592;DHT22;10958;50.892;3.992;2023-07-13T08:51:45;25.20;99.90
21592;DHT22;10958;50.892;3.992;2023-07-13T08:54:30;24.90;99.90
21592;DHT22;10958;50.892;3.992;2023-07-13T08:57:05;24.50;99.90
21592;DHT22;10958;50.892;3.992;2023-07-13T08:59:37;24.50;99.90
21592;DHT22;10958;50.892;3.992;2023-07-13T09:05:08;25.10;99.90
21592;DHT22;10958;50.892;3.992;2023-07-13T09:10:28;24.80;99.90
21592;DHT22;10958;50.892;3.992;2023-07-13T09:13:11;25.40;99.90
21592;DHT22;10958;50.892;3.992;2023-07-13T09:15:41;25.30;99.90
21592;DHT22;10958;50.892;3.992;2023-07-13T09:23:15;24.90;99.90
21592;DHT22;10958;50.892;3.992;2023-07-13T09:25:45;25.20;99.90
21592;DHT22;10958;50.892;3.992;2023-07-13T09:28:18;25.60;99.90
21592;DHT22;10958;50.892;3.992;2023-07-13T09:30:54;25.20;99.90
21592;DHT22;10958;50.892;3.992;2023-07-13T09:33:22;25.50;99.90
21592;DHT22;10958;50.892;3.992;2023-07-13T09:35:50;25.10;99.90
21592;DHT22;10958;50.892;3.992;2023-07-13T09:38:18;24.70;99.90
21592;DHT22;10958;50.892;3.992;2023-07-13T09:43:21;23.50;99.90
21592;DHT22;10958;50.892;3.992;2023-07-13T09:45:48;23.30;99.90
21592;DHT22;10958;50.892;3.992;2023-07-13T09:48:15;23.50;99.90
21592;DHT22;10958;50.892;3.992;2023-07-13T09:50:42;23.40;99.90
21592;DHT22;10958;50.892;3.992;2023-07-13T09:53:15;23.70;99.90
21592;DHT22;10958;50.892;3.992;2023-07-13T09:55:42;24.50;99.90
21592;DHT22;10958;50.892;3.992;2023-07-13T09:58:25;24.30;99.90
21592;DHT22;10958;50.892;3.992;2023-07-13T10:03:38;23.70;99.90
21592;DHT22;10958;50.892;3.992;2023-07-13T10:08:39;23.80;99.90
21592;DHT22;10958;50.892;3.992;2023-07-13T10:16:19;25.90;99.90
21592;DHT22;10958;50.892;3.992;2023-07-13T10:18:50;26.80;99.90
21592;DHT22;10958;50.892;3.992;2023-07-13T10:21:19;27.30;99.90
21592;DHT22;10958;50.892;3.992;2023-07-13T10:23:57;26.70;99.90
21592;DHT22;10958;50.892;3.992;2023-07-13T10:26:32;25.80;99.90
21592;DHT22;10958;50.892;3.992;2023-07-13T10:29:02;25.40;99.90
21592;DHT22;10958;50.892;3.992;2023-07-13T10:31:33;25.40;99.90
21592;DHT22;10958;50.892;3.992;2023-07-13T10:34:00;25.40;99.90
21592;DHT22;10958;50.892;3.992;2023-07-13T10:36:46;25.50;99.90
21592;DHT22;10958;50.892;3.992;2023-07-13T10:39:27;25.20;99.90
21592;DHT22;10958;50.892;3.992;2023-07-13T10:42:05;25.00;99.90
21592;DHT22;10958;50.892;3.992;2023-07-13T10:44:34;25.20;99.90
21592;DHT22;10958;50.892;3.992;2023-07-13T10:47:15;25.30;99.90
21592;DHT22;10958;50.892;3.992;2023-07-13T10:49:42;25.30;99.90
21592;DHT22;10958;50.892;3.992;2023-07-13T10:52:41;25.40;99.90
21592;DHT22;10958;50.892;3.992;2023-07-13T10:55:31;25.20;99.90
21592;DHT22;10958;50.892;3.992;2023-07-13T10:58:31;25.20;99.90
21592;DHT22;10958;50.892;3.992;2023-07-13T11:01:01;25.20;99.90
21592;DHT22;10958;50.892;3.992;2023-07-13T11:03:30;25.40;99.90
21592;DHT22;10958;50.892;3.992;2023-07-13T11:21:31;24.30;99.90
21592;DHT22;10958;50.892;3.992;2023-07-13T11:24:28;24.20;99.90
21592;DHT22;10958;50.892;3.992;2023-07-13T11:31:41;24.10;99.90
21592;DHT22;10958;50.892;3.992;2023-07-13T11:34:14;24.10;99.90
21592;DHT22;10958;50.892;3.992;2023-07-13T11:36:43;24.20;99.90
21592;DHT22;10958;50.892;3.992;2023-07-13T11:39:30;23.70;99.90
21592;DHT22;10958;50.892;3.992;2023-07-13T11:42:02;21.90;99.90
21592;DHT22;10958;50.892;3.992;2023-07-13T11:44:30;21.40;99.90
21592;DHT22;10958;50.892;3.992;2023-07-13T11:47:07;21.00;99.90
21592;DHT22;10958;50.892;3.992;2023-07-13T11:49:48;20.60;99.90
21592;DHT22;10958;50.892;3.992;2023-07-13T11:52:17;20.30;99.90
21592;DHT22;10958;50.892;3.992;2023-07-13T11:54:49;20.30;99.90
21592;DHT22;10958;50.892;3.992;2023-07-13T11:57:27;20.50;99.90
21592;DHT22;10958;50.892;3.992;2023-07-13T11:59:58;20.60;99.90
21592;DHT22;10958;50.892;3.992;2023-07-13T12:02:34;21.00;99.90
21592;DHT22;10958;50.892;3.992;2023-07-13T12:05:02;21.30;99.90
21592;DHT22;10958;50.892;3.992;2023-07-13T12:07:31;21.60;99.90
21592;DHT22;10958;50.892;3.992;2023-07-13T12:12:52;21.80;99.90
21592;DHT22;10958;50.892;3.992;2023-07-13T12:15:19;21.90;99.90
21592;DHT22;10958;50.892;3.992;2023-07-13T12:17:46;21.80;99.90
21592;DHT22;10958;50.892;3.992;2023-07-13T12:20:27;21.90;99.90
21592;DHT22;10958;50.892;3.992;2023-07-13T12:22:54;22.10;99.90
21592;DHT22;10958;50.892;3.992;2023-07-13T12:25:20;21.90;99.90
21592;DHT22;10958;50.892;3.992;2023-07-13T12:27:48;21.50;99.90
21592;DHT22;10958;50.892;3.992;2023-07-13T12:30:31;21.60;99.90
21592;DHT22;10958;50.892;3.992;2023-07-13T12:33:06;21.70;99.90
21592;DHT22;10958;50.892;3.992;2023-07-13T12:35:44;22.00;99.90
21592;DHT22;10958;50.892;3.992;2023-07-13T12:38:12;22.20;99.90
21592;DHT22;10958;50.892;3.992;2023-07-13T12:40:38;22.10;99.90
21592;DHT22;10958;50.892;3.992;2023-07-13T12:43:10;22.10;99.90
21592;DHT22;10958;50.892;3.992;2023-07-13T12:45:37;22.20;99.90
21592;DHT22;10958;50.892;3.992;2023-07-13T12:48:16;22.20;99.90
21592;DHT22;10958;50.892;3.992;2023-07-13T12:50:47;22.50;99.90
21592;DHT22;10958;50.892;3.992;2023-07-13T12:53:16;22.70;99.90
21592;DHT22;10958;50.892;3.992;2023-07-13T12:56:03;22.90;99.90
21592;DHT22;10958;50.892;3.992;2023-07-13T12:58:32;23.20;99.90
21592;DHT22;10958;50.892;3.992;2023-07-13T13:01:03;23.40;99.90
21592;DHT22;10958;50.892;3.992;2023-07-13T13:04:03;23.50;99.90
21592;DHT22;10958;50.892;3.992;2023-07-13T13:06:34;23.80;99.90
21592;DHT22;10958;50.892;3.992;2023-07-13T13:09:02;23.80;99.90
21592;DHT22;10958;50.892;3.992;2023-07-13T13:11:30;23.30;99.90
21592;DHT22;10958;50.892;3.992;2023-07-13T13:13:56;23.50;99.90
21592;DHT22;10958;50.892;3.992;2023-07-13T13:16:37;23.70;99.90
21592;DHT22;10958;50.892;3.992;2023-07-13T13:19:20;23.80;99.90
21592;DHT22;10958;50.892;3.992;2023-07-13T13:21:47;24.10;99.90
21592;DHT22;10958;50.892;3.992;2023-07-13T13:24:18;24.20;99.90
21592;DHT22;10958;50.892;3.992;2023-07-13T13:26:46;24.20;99.90
21592;DHT22;10958;50.892;3.992;2023-07-13T13:29:31;24.30;99.90
21592;DHT22;10958;50.892;3.992;2023-07-13T13:31:57;24.30;99.90
21592;DHT22;10958;50.892;3.992;2023-07-13T13:34:23;24.30;99.90
21592;DHT22;10958;50.892;3.992;2023-07-13T13:36:51;24.10;99.90
21592;DHT22;10958;50.892;3.992;2023-07-13T13:41:56;23.90;99.90
21592;DHT22;10958;50.892;3.992;2023-07-13T13:44:22;23.90;99.90
21592;DHT22;10958;50.892;3.992;2023-07-13T13:46:51;24.00;99.90
21592;DHT22;10958;50.892;3.992;2023-07-13T13:49:22;24.00;99.90
21592;DHT22;10958;50.892;3.992;2023-07-13T13:51:52;23.90;99.90
21592;DHT22;10958;50.892;3.992;2023-07-13T13:54:20;23.80;99.90
21592;DHT22;10958;50.892;3.992;2023-07-13T13:56:50;24.00;99.90
21592;DHT22;10958;50.892;3.992;2023-07-13T13:59:16;24.20;99.90
21592;DHT22;10958;50.892;3.992;2023-07-13T14:01:47;24.40;99.90
21592;DHT22;10958;50.892;3.992;2023-07-13T14:04:18;24.60;99.90
21592;DHT22;10958;50.892;3.992;2023-07-13T14:06:45;24.60;99.90
21592;DHT22;10958;50.892;3.992;2023-07-13T14:09:15;24.80;99.90
21592;DHT22;10958;50.892;3.992;2023-07-13T14:11:42;24.80;99.90
21592;DHT22;10958;50.892;3.992;2023-07-13T14:14:14;24.80;99.90
21592;DHT22;10958;50.892;3.992;2023-07-13T14:16:42;24.90;99.90
21592;DHT22;10958;50.892;3.992;2023-07-13T14:19:12;25.10;99.90
21592;DHT22;10958;50.892;3.992;2023-07-13T14:21:39;25.00;99.90
21592;DHT22;10958;50.892;3.992;2023-07-13T14:24:05;24.90;99.90
21592;DHT22;10958;50.892;3.992;2023-07-13T14:26:35;25.00;99.90
21592;DHT22;10958;50.892;3.992;2023-07-13T14:29:04;24.80;99.90
21592;DHT22;10958;50.892;3.992;2023-07-13T14:31:33;25.00;99.90
21592;DHT22;10958;50.892;3.992;2023-07-13T14:33:59;25.00;99.90
21592;DHT22;10958;50.892;3.992;2023-07-13T14:36:33;25.20;99.90
21592;DHT22;10958;50.892;3.992;2023-07-13T14:39:05;25.00;99.90
21592;DHT22;10958;50.892;3.992;2023-07-13T14:41:36;25.20;99.90
21592;DHT22;10958;50.892;3.992;2023-07-13T14:44:14;25.10;99.90
21592;DHT22;10958;50.892;3.992;2023-07-13T14:46:41;25.10;99.90
21592;DHT22;10958;50.892;3.992;2023-07-13T14:51:49;25.20;99.90
21592;DHT22;10958;50.892;3.992;2023-07-13T14:54:14;25.00;99.90
21592;DHT22;10958;50.892;3.992;2023-07-13T14:56:43;25.00;99.90
21592;DHT22;10958;50.892;3.992;2023-07-13T14:59:11;25.00;99.90
21592;DHT22;10958;50.892;3.992;2023-07-13T15:01:39;24.90;99.90
21592;DHT22;10958;50.892;3.992;2023-07-13T15:04:05;25.00;99.90
21592;DHT22;10958;50.892;3.992;2023-07-13T15:06:55;25.20;99.90
21592;DHT22;10958;50.892;3.992;2023-07-13T15:09:21;25.20;99.90
21592;DHT22;10958;50.892;3.992;2023-07-13T15:11:47;25.10;99.90
21592;DHT22;10958;50.892;3.992;2023-07-13T15:14:13;24.90;99.90
21592;DHT22;10958;50.892;3.992;2023-07-13T15:16:39;24.80;99.90
21592;DHT22;10958;50.892;3.992;2023-07-13T15:19:04;24.80;99.90
21592;DHT22;10958;50.892;3.992;2023-07-13T15:21:31;24.70;99.90
21592;DHT22;10958;50.892;3.992;2023-07-13T15:24:00;24.80;99.90
21592;DHT22;10958;50.892;3.992;2023-07-13T15:26:28;24.70;99.90
21592;DHT22;10958;50.892;3.992;2023-07-13T15:28:55;24.90;99.90
21592;DHT22;10958;50.892;3.992;2023-07-13T15:31:25;24.80;99.90
21592;DHT22;10958;50.892;3.992;2023-07-13T15:33:55;25.00;99.90
21592;DHT22;10958;50.892;3.992;2023-07-13T15:36:23;25.00;99.90
21592;DHT22;10958;50.892;3.992;2023-07-13T15:38:51;25.10;99.90
21592;DHT22;10958;50.892;3.992;2023-07-13T15:41:24;25.40;99.90
21592;DHT22;10958;50.892;3.992;2023-07-13T15:43:57;25.40;99.90
21592;DHT22;10958;50.892;3.992;2023-07-13T15:46:27;25.10;99.90
21592;DHT22;10958;50.892;3.992;2023-07-13T15:48:54;24.80;99.90
21592;DHT22;10958;50.892;3.992;2023-07-13T15:51:30;24.90;99.90
21592;DHT22;10958;50.892;3.992;2023-07-13T15:54:01;25.00;99.90
21592;DHT22;10958;50.892;3.992;2023-07-13T15:56:36;25.30;99.90
21592;DHT22;10958;50.892;3.992;2023-07-13T15:59:02;25.40;99.90
21592;DHT22;10958;50.892;3.992;2023-07-13T16:01:30;25.40;99.90
21592;DHT22;10958;50.892;3.992;2023-07-13T16:03:56;25.50;99.90
21592;DHT22;10958;50.892;3.992;2023-07-13T16:06:26;25.20;99.90
21592;DHT22;10958;50.892;3.992;2023-07-13T16:08:53;25.20;99.90
21592;DHT22;10958;50.892;3.992;2023-07-13T16:11:25;25.10;99.90
21592;DHT22;10958;50.892;3.992;2023-07-13T16:13:54;25.30;99.90
21592;DHT22;10958;50.892;3.992;2023-07-13T16:16:26;25.40;99.90
21592;DHT22;10958;50.892;3.992;2023-07-13T16:18:55;25.30;99.90
21592;DHT22;10958;50.892;3.992;2023-07-13T16:21:26;25.40;99.90
21592;DHT22;10958;50.892;3.992;2023-07-13T16:23:53;25.60;99.90
21592;DHT22;10958;50.892;3.992;2023-07-13T16:26:30;25.50;99.90
21592;DHT22;10958;50.892;3.992;2023-07-13T16:29:26;25.50;99.90
21592;DHT22;10958;50.892;3.992;2023-07-13T16:34:31;25.40;99.90
21592;DHT22;10958;50.892;3.992;2023-07-13T16:36:58;25.20;99.90
21592;DHT22;10958;50.892;3.992;2023-07-13T16:39:25;25.00;99.90